sensor_id;sensor_type;location;lat;lon;timestamp;P1;durP1;ratioP1;P2;durP2;ratioP2
74904;SDS011;63465;50.862;6.220;2023-06-24T00:00:56;11.80;;;8.00;;
74904;SDS011;63465;50.862;6.220;2023-06-24T00:03:21;11.10;;;8.67;;
74904;SDS011;63465;50.862;6.220;2023-06-24T00:05:47;9.03;;;8.13;;
74904;SDS011;63465;50.862;6.220;2023-06-24T00:08:15;14.23;;;7.67;;
74904;SDS011;63465;50.862;6.220;2023-06-24T00:10:47;14.50;;;8.80;;
74904;SDS011;63465;50.862;6.220;2023-06-24T00:13:12;14.13;;;9.03;;
74904;SDS011;63465;50.862;6.220;2023-06-24T00:15:39;13.50;;;8.13;;
74904;SDS011;63465;50.862;6.220;2023-06-24T00:18:08;19.17;;;9.97;;
74904;SDS011;63465;50.862;6.220;2023-06-24T00:20:34;12.00;;;9.40;;
74904;SDS011;63465;50.862;6.220;2023-06-24T00:22:59;13.93;;;8.67;;
74904;SDS011;63465;50.862;6.220;2023-06-24T00:25:25;14.17;;;8.60;;
74904;SDS011;63465;50.862;6.220;2023-06-24T00:27:50;11.93;;;8.70;;
74904;SDS011;63465;50.862;6.220;2023-06-24T00:30:16;12.53;;;8.30;;
74904;SDS011;63465;50.862;6.220;2023-06-24T00:32:41;9.37;;;8.17;;
74904;SDS011;63465;50.862;6.220;2023-06-24T00:35:06;13.03;;;8.83;;
74904;SDS011;63465;50.862;6.220;2023-06-24T00:37:32;16.70;;;10.23;;
74904;SDS011;63465;50.862;6.220;2023-06-24T00:39:57;11.70;;;8.57;;
74904;SDS011;63465;50.862;6.220;2023-06-24T00:42:23;13.83;;;9.70;;
74904;SDS011;63465;50.862;6.220;2023-06-24T00:44:48;13.63;;;9.03;;
74904;SDS011;63465;50.862;6.220;2023-06-24T00:47:14;14.13;;;8.60;;
74904;SDS011;63465;50.862;6.220;2023-06-24T00:49:40;17.23;;;8.73;;
74904;SDS011;63465;50.862;6.220;2023-06-24T00:52:10;20.23;;;10.10;;
74904;SDS011;63465;50.862;6.220;2023-06-24T00:54:35;12.67;;;8.80;;
74904;SDS011;63465;50.862;6.220;2023-06-24T00:57:01;13.07;;;9.60;;
74904;SDS011;63465;50.862;6.220;2023-06-24T00:59:26;9.60;;;8.57;;
74904;SDS011;63465;50.862;6.220;2023-06-24T01:01:56;15.47;;;9.10;;
74904;SDS011;63465;50.862;6.220;2023-06-24T01:04:21;12.03;;;9.27;;
74904;SDS011;63465;50.862;6.220;2023-06-24T01:06:46;13.77;;;9.80;;
74904;SDS011;63465;50.862;6.220;2023-06-24T01:09:12;13.80;;;9.47;;
74904;SDS011;63465;50.862;6.220;2023-06-24T01:11:38;10.80;;;8.93;;
74904;SDS011;63465;50.862;6.220;2023-06-24T01:14:03;11.40;;;8.83;;
74904;SDS011;63465;50.862;6.220;2023-06-24T01:19:03;14.47;;;9.30;;
74904;SDS011;63465;50.862;6.220;2023-06-24T01:22:37;10.67;;;8.77;;
74904;SDS011;63465;50.862;6.220;2023-06-24T01:24:51;12.13;;;9.27;;
74904;SDS011;63465;50.862;6.220;2023-06-24T01:27:44;11.87;;;9.37;;
74904;SDS011;63465;50.862;6.220;2023-06-24T01:32:59;10.73;;;8.70;;
74904;SDS011;63465;50.862;6.220;2023-06-24T01:35:31;12.90;;;8.90;;
74904;SDS011;63465;50.862;6.220;2023-06-24T01:38:01;16.77;;;10.27;;
74904;SDS011;63465;50.862;6.220;2023-06-24T01:40:33;11.47;;;8.37;;
74904;SDS011;63465;50.862;6.220;2023-06-24T01:43:03;14.17;;;8.60;;
74904;SDS011;63465;50.862;6.220;2023-06-24T01:45:32;13.43;;;8.10;;
74904;SDS011;63465;50.862;6.220;2023-06-24T01:48:05;18.00;;;8.30;;
74904;SDS011;63465;50.862;6.220;2023-06-24T01:50:34;12.50;;;8.10;;
74904;SDS011;63465;50.862;6.220;2023-06-24T01:53:01;11.20;;;7.93;;
74904;SDS011;63465;50.862;6.220;2023-06-24T01:55:31;16.03;;;8.40;;
74904;SDS011;63465;50.862;6.220;2023-06-24T01:57:57;9.77;;;7.33;;
74904;SDS011;63465;50.862;6.220;2023-06-24T02:00:24;11.17;;;7.03;;
74904;SDS011;63465;50.862;6.220;2023-06-24T02:02:51;15.20;;;7.90;;
74904;SDS011;63465;50.862;6.220;2023-06-24T02:05:18;16.97;;;8.03;;
74904;SDS011;63465;50.862;6.220;2023-06-24T02:07:46;10.63;;;8.30;;
74904;SDS011;63465;50.862;6.220;2023-06-24T02:10:13;12.60;;;7.93;;
74904;SDS011;63465;50.862;6.220;2023-06-24T02:12:39;17.53;;;7.50;;
74904;SDS011;63465;50.862;6.220;2023-06-24T02:15:06;10.13;;;7.80;;
74904;SDS011;63465;50.862;6.220;2023-06-24T02:17:33;11.70;;;8.47;;
74904;SDS011;63465;50.862;6.220;2023-06-24T02:19:59;10.00;;;7.40;;
74904;SDS011;63465;50.862;6.220;2023-06-24T02:22:26;10.53;;;7.60;;
74904;SDS011;63465;50.862;6.220;2023-06-24T02:24:52;10.23;;;8.27;;
74904;SDS011;63465;50.862;6.220;2023-06-24T02:27:19;10.90;;;7.70;;
74904;SDS011;63465;50.862;6.220;2023-06-24T02:29:45;10.90;;;8.20;;
74904;SDS011;63465;50.862;6.220;2023-06-24T02:32:11;13.20;;;7.60;;
74904;SDS011;63465;50.862;6.220;2023-06-24T02:34:36;14.23;;;7.90;;
74904;SDS011;63465;50.862;6.220;2023-06-24T02:37:02;13.73;;;8.00;;
74904;SDS011;63465;50.862;6.220;2023-06-24T02:39:27;11.43;;;7.77;;
74904;SDS011;63465;50.862;6.220;2023-06-24T02:41:52;8.33;;;7.43;;
74904;SDS011;63465;50.862;6.220;2023-06-24T02:44:18;14.90;;;7.60;;
74904;SDS011;63465;50.862;6.220;2023-06-24T02:46:43;10.97;;;8.03;;
74904;SDS011;63465;50.862;6.220;2023-06-24T02:49:12;13.70;;;8.77;;
74904;SDS011;63465;50.862;6.220;2023-06-24T02:51:38;14.73;;;7.03;;
74904;SDS011;63465;50.862;6.220;2023-06-24T02:54:04;18.73;;;8.70;;
74904;SDS011;63465;50.862;6.220;2023-06-24T02:56:30;16.40;;;8.97;;
74904;SDS011;63465;50.862;6.220;2023-06-24T02:58:57;12.07;;;8.00;;
74904;SDS011;63465;50.862;6.220;2023-06-24T03:01:22;10.07;;;7.87;;
74904;SDS011;63465;50.862;6.220;2023-06-24T03:03:53;12.17;;;8.03;;
74904;SDS011;63465;50.862;6.220;2023-06-24T03:06:20;12.20;;;9.03;;
74904;SDS011;63465;50.862;6.220;2023-06-24T03:08:47;12.40;;;9.00;;
74904;SDS011;63465;50.862;6.220;2023-06-24T03:11:13;10.67;;;8.33;;
74904;SDS011;63465;50.862;6.220;2023-06-24T03:13:41;12.73;;;8.33;;
74904;SDS011;63465;50.862;6.220;2023-06-24T03:16:08;15.17;;;8.57;;
74904;SDS011;63465;50.862;6.220;2023-06-24T03:18:39;20.80;;;8.60;;
74904;SDS011;63465;50.862;6.220;2023-06-24T03:21:05;13.10;;;8.77;;
74904;SDS011;63465;50.862;6.220;2023-06-24T03:23:31;16.40;;;8.70;;
74904;SDS011;63465;50.862;6.220;2023-06-24T03:25:56;14.63;;;8.00;;
74904;SDS011;63465;50.862;6.220;2023-06-24T03:28:21;11.07;;;8.80;;
74904;SDS011;63465;50.862;6.220;2023-06-24T03:30:47;19.70;;;8.93;;
74904;SDS011;63465;50.862;6.220;2023-06-24T03:33:12;21.33;;;8.57;;
74904;SDS011;63465;50.862;6.220;2023-06-24T03:35:45;22.40;;;8.87;;
74904;SDS011;63465;50.862;6.220;2023-06-24T03:38:10;15.07;;;8.10;;
74904;SDS011;63465;50.862;6.220;2023-06-24T03:40:36;14.10;;;9.07;;
74904;SDS011;63465;50.862;6.220;2023-06-24T03:43:02;11.80;;;8.20;;
74904;SDS011;63465;50.862;6.220;2023-06-24T03:45:27;11.80;;;9.23;;
74904;SDS011;63465;50.862;6.220;2023-06-24T03:47:53;12.93;;;8.80;;
74904;SDS011;63465;50.862;6.220;2023-06-24T03:50:18;11.73;;;8.70;;
74904;SDS011;63465;50.862;6.220;2023-06-24T03:52:44;17.23;;;9.00;;
74904;SDS011;63465;50.862;6.220;2023-06-24T03:55:09;16.03;;;8.70;;
74904;SDS011;63465;50.862;6.220;2023-06-24T03:57:35;12.77;;;8.67;;
74904;SDS011;63465;50.862;6.220;2023-06-24T04:00:01;15.20;;;7.83;;
74904;SDS011;63465;50.862;6.220;2023-06-24T04:02:31;12.63;;;9.23;;
74904;SDS011;63465;50.862;6.220;2023-06-24T04:04:57;12.17;;;8.40;;
74904;SDS011;63465;50.862;6.220;2023-06-24T04:07:23;13.20;;;9.00;;
74904;SDS011;63465;50.862;6.220;2023-06-24T04:09:55;15.20;;;8.63;;
74904;SDS011;63465;50.862;6.220;2023-06-24T04:12:21;12.10;;;8.53;;
74904;SDS011;63465;50.862;6.220;2023-06-24T04:14:46;10.60;;;8.37;;
74904;SDS011;63465;50.862;6.220;2023-06-24T04:17:12;15.50;;;8.80;;
74904;SDS011;63465;50.862;6.220;2023-06-24T04:19:37;12.33;;;8.67;;
74904;SDS011;63465;50.862;6.220;2023-06-24T04:22:04;12.20;;;8.43;;
74904;SDS011;63465;50.862;6.220;2023-06-24T04:24:29;13.37;;;7.87;;
74904;SDS011;63465;50.862;6.220;2023-06-24T04:26:55;15.20;;;9.27;;
74904;SDS011;63465;50.862;6.220;2023-06-24T04:29:20;17.83;;;9.00;;
74904;SDS011;63465;50.862;6.220;2023-06-24T04:31:45;11.83;;;8.40;;
74904;SDS011;63465;50.862;6.220;2023-06-24T04:34:11;14.37;;;9.97;;
74904;SDS011;63465;50.862;6.220;2023-06-24T04:36:36;14.37;;;9.20;;
74904;SDS011;63465;50.862;6.220;2023-06-24T04:39:01;12.63;;;9.27;;
74904;SDS011;63465;50.862;6.220;2023-06-24T04:41:27;12.17;;;9.07;;
74904;SDS011;63465;50.862;6.220;2023-06-24T04:43:52;15.60;;;9.90;;
74904;SDS011;63465;50.862;6.220;2023-06-24T04:46:17;15.10;;;9.27;;
74904;SDS011;63465;50.862;6.220;2023-06-24T04:48:43;11.70;;;8.83;;
74904;SDS011;63465;50.862;6.220;2023-06-24T04:51:08;18.23;;;9.00;;
74904;SDS011;63465;50.862;6.220;2023-06-24T04:53:33;18.20;;;9.50;;
74904;SDS011;63465;50.862;6.220;2023-06-24T04:55:59;14.67;;;9.60;;
74904;SDS011;63465;50.862;6.220;2023-06-24T04:58:25;16.60;;;9.23;;
74904;SDS011;63465;50.862;6.220;2023-06-24T05:00:50;15.63;;;9.63;;
74904;SDS011;63465;50.862;6.220;2023-06-24T05:03:15;12.00;;;8.60;;
74904;SDS011;63465;50.862;6.220;2023-06-24T05:05:40;23.50;;;10.07;;
74904;SDS011;63465;50.862;6.220;2023-06-24T05:08:06;12.53;;;9.57;;
74904;SDS011;63465;50.862;6.220;2023-06-24T05:10:31;15.10;;;8.60;;
74904;SDS011;63465;50.862;6.220;2023-06-24T05:12:56;13.63;;;8.70;;
74904;SDS011;63465;50.862;6.220;2023-06-24T05:15:22;17.97;;;9.60;;
74904;SDS011;63465;50.862;6.220;2023-06-24T05:17:47;13.03;;;9.27;;
74904;SDS011;63465;50.862;6.220;2023-06-24T05:20:12;16.00;;;9.23;;
74904;SDS011;63465;50.862;6.220;2023-06-24T05:22:38;20.80;;;10.63;;
74904;SDS011;63465;50.862;6.220;2023-06-24T05:25:03;14.37;;;9.60;;
74904;SDS011;63465;50.862;6.220;2023-06-24T05:27:29;14.03;;;9.27;;
74904;SDS011;63465;50.862;6.220;2023-06-24T05:29:54;15.97;;;9.53;;
74904;SDS011;63465;50.862;6.220;2023-06-24T05:32:19;13.13;;;9.73;;
74904;SDS011;63465;50.862;6.220;2023-06-24T05:34:45;15.33;;;9.20;;
74904;SDS011;63465;50.862;6.220;2023-06-24T05:37:11;12.80;;;9.20;;
74904;SDS011;63465;50.862;6.220;2023-06-24T05:39:36;19.30;;;9.70;;
74904;SDS011;63465;50.862;6.220;2023-06-24T05:42:02;16.87;;;9.57;;
74904;SDS011;63465;50.862;6.220;2023-06-24T05:44:27;12.60;;;9.50;;
74904;SDS011;63465;50.862;6.220;2023-06-24T05:46:53;19.20;;;9.00;;
74904;SDS011;63465;50.862;6.220;2023-06-24T05:49:18;13.37;;;9.03;;
74904;SDS011;63465;50.862;6.220;2023-06-24T05:51:43;16.63;;;9.43;;
74904;SDS011;63465;50.862;6.220;2023-06-24T05:54:09;16.43;;;10.13;;
74904;SDS011;63465;50.862;6.220;2023-06-24T05:56:34;13.13;;;8.73;;
74904;SDS011;63465;50.862;6.220;2023-06-24T05:59:01;9.87;;;8.53;;
74904;SDS011;63465;50.862;6.220;2023-06-24T06:01:26;14.27;;;9.70;;
74904;SDS011;63465;50.862;6.220;2023-06-24T06:03:52;11.93;;;8.30;;
74904;SDS011;63465;50.862;6.220;2023-06-24T06:06:17;14.93;;;7.70;;
74904;SDS011;63465;50.862;6.220;2023-06-24T06:08:43;16.10;;;9.07;;
74904;SDS011;63465;50.862;6.220;2023-06-24T06:11:08;14.00;;;8.70;;
74904;SDS011;63465;50.862;6.220;2023-06-24T06:13:33;15.00;;;8.70;;
74904;SDS011;63465;50.862;6.220;2023-06-24T06:15:58;15.60;;;8.20;;
74904;SDS011;63465;50.862;6.220;2023-06-24T06:18:24;13.07;;;8.40;;
74904;SDS011;63465;50.862;6.220;2023-06-24T06:20:49;10.97;;;7.67;;
74904;SDS011;63465;50.862;6.220;2023-06-24T06:23:15;11.90;;;8.33;;
74904;SDS011;63465;50.862;6.220;2023-06-24T06:25:40;10.63;;;7.73;;
74904;SDS011;63465;50.862;6.220;2023-06-24T06:28:06;9.30;;;7.07;;
74904;SDS011;63465;50.862;6.220;2023-06-24T06:30:31;13.00;;;7.77;;
74904;SDS011;63465;50.862;6.220;2023-06-24T06:32:56;9.47;;;6.67;;
74904;SDS011;63465;50.862;6.220;2023-06-24T06:35:22;11.10;;;6.93;;
74904;SDS011;63465;50.862;6.220;2023-06-24T06:37:47;10.33;;;6.80;;
74904;SDS011;63465;50.862;6.220;2023-06-24T06:40:17;18.00;;;8.17;;
74904;SDS011;63465;50.862;6.220;2023-06-24T06:42:43;16.30;;;7.20;;
74904;SDS011;63465;50.862;6.220;2023-06-24T06:45:08;6.07;;;5.43;;
74904;SDS011;63465;50.862;6.220;2023-06-24T06:47:34;8.63;;;6.50;;
74904;SDS011;63465;50.862;6.220;2023-06-24T06:49:59;11.77;;;6.67;;
74904;SDS011;63465;50.862;6.220;2023-06-24T06:52:24;12.00;;;6.70;;
74904;SDS011;63465;50.862;6.220;2023-06-24T06:54:50;9.40;;;6.37;;
74904;SDS011;63465;50.862;6.220;2023-06-24T06:57:15;7.10;;;5.50;;
74904;SDS011;63465;50.862;6.220;2023-06-24T06:59:40;8.57;;;5.90;;
74904;SDS011;63465;50.862;6.220;2023-06-24T07:02:06;7.70;;;6.30;;
74904;SDS011;63465;50.862;6.220;2023-06-24T07:04:31;11.93;;;6.40;;
74904;SDS011;63465;50.862;6.220;2023-06-24T07:06:57;7.77;;;6.40;;
74904;SDS011;63465;50.862;6.220;2023-06-24T07:09:22;7.27;;;5.87;;
74904;SDS011;63465;50.862;6.220;2023-06-24T07:11:48;10.20;;;6.20;;
74904;SDS011;63465;50.862;6.220;2023-06-24T07:14:13;8.27;;;6.63;;
74904;SDS011;63465;50.862;6.220;2023-06-24T07:16:38;8.40;;;6.73;;
74904;SDS011;63465;50.862;6.220;2023-06-24T07:19:04;10.57;;;5.90;;
74904;SDS011;63465;50.862;6.220;2023-06-24T07:21:29;11.47;;;6.73;;
74904;SDS011;63465;50.862;6.220;2023-06-24T07:23:54;9.70;;;6.90;;
74904;SDS011;63465;50.862;6.220;2023-06-24T07:26:19;8.83;;;5.53;;
74904;SDS011;63465;50.862;6.220;2023-06-24T07:28:45;6.60;;;5.90;;
74904;SDS011;63465;50.862;6.220;2023-06-24T07:31:11;8.93;;;6.50;;
74904;SDS011;63465;50.862;6.220;2023-06-24T07:33:36;7.17;;;5.53;;
74904;SDS011;63465;50.862;6.220;2023-06-24T07:36:02;9.20;;;6.30;;
74904;SDS011;63465;50.862;6.220;2023-06-24T07:38:28;9.13;;;6.13;;
74904;SDS011;63465;50.862;6.220;2023-06-24T07:40:54;9.27;;;6.40;;
74904;SDS011;63465;50.862;6.220;2023-06-24T07:43:19;10.57;;;6.10;;
74904;SDS011;63465;50.862;6.220;2023-06-24T07:45:44;7.20;;;5.67;;
74904;SDS011;63465;50.862;6.220;2023-06-24T07:48:09;9.30;;;6.07;;
74904;SDS011;63465;50.862;6.220;2023-06-24T07:50:35;8.93;;;6.00;;
74904;SDS011;63465;50.862;6.220;2023-06-24T07:53:01;8.10;;;6.47;;
74904;SDS011;63465;50.862;6.220;2023-06-24T07:55:27;8.37;;;6.33;;
74904;SDS011;63465;50.862;6.220;2023-06-24T07:57:52;9.97;;;7.80;;
74904;SDS011;63465;50.862;6.220;2023-06-24T08:00:18;12.30;;;6.10;;
74904;SDS011;63465;50.862;6.220;2023-06-24T08:02:43;10.93;;;7.17;;
74904;SDS011;63465;50.862;6.220;2023-06-24T08:05:08;7.07;;;6.37;;
74904;SDS011;63465;50.862;6.220;2023-06-24T08:07:34;8.63;;;7.03;;
74904;SDS011;63465;50.862;6.220;2023-06-24T08:10:00;10.07;;;6.67;;
74904;SDS011;63465;50.862;6.220;2023-06-24T08:12:26;13.13;;;7.07;;
74904;SDS011;63465;50.862;6.220;2023-06-24T08:14:51;10.27;;;8.07;;
74904;SDS011;63465;50.862;6.220;2023-06-24T08:17:16;12.20;;;7.10;;
74904;SDS011;63465;50.862;6.220;2023-06-24T08:19:42;12.60;;;8.30;;
74904;SDS011;63465;50.862;6.220;2023-06-24T08:22:07;10.87;;;7.77;;
74904;SDS011;63465;50.862;6.220;2023-06-24T08:24:33;9.60;;;7.73;;
74904;SDS011;63465;50.862;6.220;2023-06-24T08:27:16;13.73;;;8.93;;
74904;SDS011;63465;50.862;6.220;2023-06-24T08:30:00;10.67;;;8.50;;
74904;SDS011;63465;50.862;6.220;2023-06-24T08:32:26;10.17;;;7.30;;
74904;SDS011;63465;50.862;6.220;2023-06-24T08:34:51;16.20;;;8.23;;
74904;SDS011;63465;50.862;6.220;2023-06-24T08:37:16;13.93;;;7.23;;
74904;SDS011;63465;50.862;6.220;2023-06-24T08:39:41;11.70;;;8.40;;
74904;SDS011;63465;50.862;6.220;2023-06-24T08:42:07;10.17;;;7.50;;
74904;SDS011;63465;50.862;6.220;2023-06-24T08:44:32;10.90;;;7.80;;
74904;SDS011;63465;50.862;6.220;2023-06-24T08:46:57;9.53;;;7.97;;
74904;SDS011;63465;50.862;6.220;2023-06-24T08:49:25;14.53;;;7.70;;
74904;SDS011;63465;50.862;6.220;2023-06-24T08:51:59;9.90;;;8.13;;
74904;SDS011;63465;50.862;6.220;2023-06-24T08:54:34;9.97;;;7.33;;
74904;SDS011;63465;50.862;6.220;2023-06-24T08:57:01;13.60;;;8.80;;
74904;SDS011;63465;50.862;6.220;2023-06-24T08:59:30;12.50;;;7.80;;
74904;SDS011;63465;50.862;6.220;2023-06-24T09:01:56;7.97;;;6.13;;
74904;SDS011;63465;50.862;6.220;2023-06-24T09:04:21;10.50;;;6.77;;
74904;SDS011;63465;50.862;6.220;2023-06-24T09:06:47;10.30;;;7.30;;
74904;SDS011;63465;50.862;6.220;2023-06-24T09:09:19;8.30;;;6.30;;
74904;SDS011;63465;50.862;6.220;2023-06-24T09:11:54;9.03;;;6.57;;
74904;SDS011;63465;50.862;6.220;2023-06-24T09:14:22;11.40;;;6.57;;
74904;SDS011;63465;50.862;6.220;2023-06-24T09:16:56;8.10;;;5.60;;
74904;SDS011;63465;50.862;6.220;2023-06-24T09:19:31;7.00;;;5.80;;
74904;SDS011;63465;50.862;6.220;2023-06-24T09:22:04;6.90;;;5.67;;
74904;SDS011;63465;50.862;6.220;2023-06-24T09:24:31;9.43;;;4.60;;
74904;SDS011;63465;50.862;6.220;2023-06-24T09:27:01;4.53;;;3.63;;
74904;SDS011;63465;50.862;6.220;2023-06-24T09:29:28;6.20;;;4.63;;
74904;SDS011;63465;50.862;6.220;2023-06-24T09:31:56;5.30;;;4.20;;
74904;SDS011;63465;50.862;6.220;2023-06-24T09:34:24;4.60;;;4.00;;
74904;SDS011;63465;50.862;6.220;2023-06-24T09:36:53;3.90;;;3.50;;
74904;SDS011;63465;50.862;6.220;2023-06-24T09:39:20;4.97;;;3.97;;
74904;SDS011;63465;50.862;6.220;2023-06-24T09:41:50;3.47;;;3.17;;
74904;SDS011;63465;50.862;6.220;2023-06-24T09:44:15;3.53;;;3.33;;
74904;SDS011;63465;50.862;6.220;2023-06-24T09:46:42;4.07;;;3.67;;
74904;SDS011;63465;50.862;6.220;2023-06-24T09:49:08;4.50;;;4.10;;
74904;SDS011;63465;50.862;6.220;2023-06-24T09:51:35;4.63;;;3.40;;
74904;SDS011;63465;50.862;6.220;2023-06-24T09:54:08;3.53;;;3.20;;
74904;SDS011;63465;50.862;6.220;2023-06-24T09:56:37;6.03;;;3.27;;
74904;SDS011;63465;50.862;6.220;2023-06-24T09:59:05;3.20;;;3.00;;
74904;SDS011;63465;50.862;6.220;2023-06-24T10:01:36;2.57;;;2.37;;
74904;SDS011;63465;50.862;6.220;2023-06-24T10:04:03;3.50;;;3.00;;
74904;SDS011;63465;50.862;6.220;2023-06-24T10:06:30;3.03;;;2.83;;
74904;SDS011;63465;50.862;6.220;2023-06-24T10:08:56;2.83;;;2.50;;
74904;SDS011;63465;50.862;6.220;2023-06-24T10:11:22;3.43;;;3.13;;
74904;SDS011;63465;50.862;6.220;2023-06-24T10:13:47;3.57;;;2.80;;
74904;SDS011;63465;50.862;6.220;2023-06-24T10:16:13;4.27;;;2.73;;
74904;SDS011;63465;50.862;6.220;2023-06-24T10:18:40;2.70;;;2.50;;
74904;SDS011;63465;50.862;6.220;2023-06-24T10:21:06;3.10;;;2.90;;
74904;SDS011;63465;50.862;6.220;2023-06-24T10:23:35;2.20;;;2.00;;
74904;SDS011;63465;50.862;6.220;2023-06-24T10:26:07;2.97;;;2.77;;
74904;SDS011;63465;50.862;6.220;2023-06-24T10:31:50;2.63;;;2.43;;
74904;SDS011;63465;50.862;6.220;2023-06-24T10:37:21;2.20;;;2.10;;
74904;SDS011;63465;50.862;6.220;2023-06-24T10:39:55;2.20;;;1.90;;
74904;SDS011;63465;50.862;6.220;2023-06-24T10:45:12;2.43;;;2.20;;
74904;SDS011;63465;50.862;6.220;2023-06-24T10:47:43;1.83;;;1.73;;
74904;SDS011;63465;50.862;6.220;2023-06-24T10:50:19;2.03;;;1.90;;
74904;SDS011;63465;50.862;6.220;2023-06-24T10:52:46;2.47;;;2.27;;
74904;SDS011;63465;50.862;6.220;2023-06-24T10:55:13;1.37;;;1.37;;
74904;SDS011;63465;50.862;6.220;2023-06-24T10:57:42;1.87;;;1.77;;
74904;SDS011;63465;50.862;6.220;2023-06-24T11:00:08;2.00;;;1.90;;
74904;SDS011;63465;50.862;6.220;2023-06-24T11:02:35;2.60;;;1.90;;
74904;SDS011;63465;50.862;6.220;2023-06-24T11:05:02;2.33;;;2.17;;
74904;SDS011;63465;50.862;6.220;2023-06-24T11:07:29;2.37;;;2.00;;
74904;SDS011;63465;50.862;6.220;2023-06-24T11:09:58;2.20;;;2.10;;
74904;SDS011;63465;50.862;6.220;2023-06-24T11:12:27;2.23;;;2.13;;
74904;SDS011;63465;50.862;6.220;2023-06-24T11:15:00;2.00;;;1.90;;
74904;SDS011;63465;50.862;6.220;2023-06-24T11:17:27;2.35;;;2.15;;
74904;SDS011;63465;50.862;6.220;2023-06-24T11:19:53;2.07;;;1.97;;
74904;SDS011;63465;50.862;6.220;2023-06-24T11:22:19;2.03;;;1.93;;
74904;SDS011;63465;50.862;6.220;2023-06-24T11:24:45;2.43;;;2.30;;
74904;SDS011;63465;50.862;6.220;2023-06-24T11:27:10;2.60;;;2.40;;
74904;SDS011;63465;50.862;6.220;2023-06-24T11:29:36;2.10;;;2.00;;
74904;SDS011;63465;50.862;6.220;2023-06-24T11:32:02;2.07;;;1.97;;
74904;SDS011;63465;50.862;6.220;2023-06-24T11:34:28;2.33;;;2.10;;
74904;SDS011;63465;50.862;6.220;2023-06-24T11:36:54;2.03;;;1.93;;
74904;SDS011;63465;50.862;6.220;2023-06-24T11:39:23;2.87;;;2.67;;
74904;SDS011;63465;50.862;6.220;2023-06-24T11:41:50;2.50;;;2.27;;
74904;SDS011;63465;50.862;6.220;2023-06-24T11:44:23;1.77;;;1.67;;
74904;SDS011;63465;50.862;6.220;2023-06-24T11:46:49;3.57;;;2.40;;
74904;SDS011;63465;50.862;6.220;2023-06-24T11:49:14;2.00;;;1.90;;
74904;SDS011;63465;50.862;6.220;2023-06-24T11:51:47;2.03;;;1.90;;
74904;SDS011;63465;50.862;6.220;2023-06-24T11:54:17;2.63;;;2.45;;
74904;SDS011;63465;50.862;6.220;2023-06-24T11:56:49;2.43;;;2.23;;
74904;SDS011;63465;50.862;6.220;2023-06-24T12:01:43;2.67;;;2.47;;
74904;SDS011;63465;50.862;6.220;2023-06-24T12:04:10;2.60;;;2.40;;
74904;SDS011;63465;50.862;6.220;2023-06-24T12:06:41;2.60;;;2.40;;
74904;SDS011;63465;50.862;6.220;2023-06-24T12:09:08;2.03;;;1.93;;
74904;SDS011;63465;50.862;6.220;2023-06-24T12:11:34;3.40;;;2.33;;
74904;SDS011;63465;50.862;6.220;2023-06-24T12:14:00;3.40;;;2.70;;
74904;SDS011;63465;50.862;6.220;2023-06-24T12:16:25;2.40;;;2.20;;
74904;SDS011;63465;50.862;6.220;2023-06-24T12:18:51;3.00;;;2.50;;
74904;SDS011;63465;50.862;6.220;2023-06-24T12:21:16;3.13;;;2.83;;
74904;SDS011;63465;50.862;6.220;2023-06-24T12:23:42;4.70;;;2.40;;
74904;SDS011;63465;50.862;6.220;2023-06-24T12:26:07;3.20;;;2.10;;
74904;SDS011;63465;50.862;6.220;2023-06-24T12:28:32;2.50;;;2.30;;
74904;SDS011;63465;50.862;6.220;2023-06-24T12:30:58;2.40;;;2.20;;
74904;SDS011;63465;50.862;6.220;2023-06-24T12:33:23;2.50;;;2.33;;
74904;SDS011;63465;50.862;6.220;2023-06-24T12:35:48;2.60;;;2.40;;
74904;SDS011;63465;50.862;6.220;2023-06-24T12:38:14;14.37;;;2.83;;
74904;SDS011;63465;50.862;6.220;2023-06-24T12:40:40;2.40;;;2.20;;
74904;SDS011;63465;50.862;6.220;2023-06-24T12:43:06;2.57;;;2.23;;
74904;SDS011;63465;50.862;6.220;2023-06-24T12:45:31;4.03;;;2.50;;
74904;SDS011;63465;50.862;6.220;2023-06-24T12:47:56;2.47;;;2.37;;
74904;SDS011;63465;50.862;6.220;2023-06-24T12:50:22;2.53;;;2.33;;
74904;SDS011;63465;50.862;6.220;2023-06-24T12:52:47;2.83;;;2.20;;
74904;SDS011;63465;50.862;6.220;2023-06-24T12:55:12;3.43;;;2.33;;
74904;SDS011;63465;50.862;6.220;2023-06-24T12:57:38;3.10;;;2.30;;
74904;SDS011;63465;50.862;6.220;2023-06-24T13:00:06;3.20;;;2.80;;
74904;SDS011;63465;50.862;6.220;2023-06-24T13:02:32;2.63;;;2.43;;
74904;SDS011;63465;50.862;6.220;2023-06-24T13:04:58;4.10;;;2.60;;
74904;SDS011;63465;50.862;6.220;2023-06-24T13:07:23;3.80;;;3.07;;
74904;SDS011;63465;50.862;6.220;2023-06-24T13:09:49;5.57;;;3.03;;
74904;SDS011;63465;50.862;6.220;2023-06-24T13:12:14;4.00;;;2.60;;
74904;SDS011;63465;50.862;6.220;2023-06-24T13:14:39;2.50;;;2.30;;
74904;SDS011;63465;50.862;6.220;2023-06-24T13:17:05;2.20;;;2.10;;
74904;SDS011;63465;50.862;6.220;2023-06-24T13:19:30;2.60;;;2.40;;
74904;SDS011;63465;50.862;6.220;2023-06-24T13:21:57;2.43;;;2.20;;
74904;SDS011;63465;50.862;6.220;2023-06-24T13:24:22;2.20;;;2.10;;
74904;SDS011;63465;50.862;6.220;2023-06-24T13:26:48;2.13;;;1.97;;
74904;SDS011;63465;50.862;6.220;2023-06-24T13:29:13;3.70;;;2.00;;
74904;SDS011;63465;50.862;6.220;2023-06-24T13:31:38;4.50;;;2.70;;
74904;SDS011;63465;50.862;6.220;2023-06-24T13:34:04;1.77;;;1.67;;
74904;SDS011;63465;50.862;6.220;2023-06-24T13:36:36;1.90;;;1.80;;
74904;SDS011;63465;50.862;6.220;2023-06-24T13:39:06;2.70;;;2.07;;
74904;SDS011;63465;50.862;6.220;2023-06-24T13:41:32;1.90;;;1.80;;
74904;SDS011;63465;50.862;6.220;2023-06-24T13:43:58;2.50;;;1.70;;
74904;SDS011;63465;50.862;6.220;2023-06-24T13:46:24;2.00;;;1.80;;
74904;SDS011;63465;50.862;6.220;2023-06-24T13:48:50;2.77;;;2.20;;
74904;SDS011;63465;50.862;6.220;2023-06-24T13:51:16;2.17;;;2.07;;
74904;SDS011;63465;50.862;6.220;2023-06-24T13:53:42;2.33;;;2.13;;
74904;SDS011;63465;50.862;6.220;2023-06-24T13:56:08;2.60;;;2.37;;
74904;SDS011;63465;50.862;6.220;2023-06-24T13:58:34;3.73;;;1.77;;
74904;SDS011;63465;50.862;6.220;2023-06-24T14:00:59;3.23;;;2.00;;
74904;SDS011;63465;50.862;6.220;2023-06-24T14:03:25;3.17;;;1.80;;
74904;SDS011;63465;50.862;6.220;2023-06-24T14:05:50;4.13;;;2.53;;
74904;SDS011;63465;50.862;6.220;2023-06-24T14:08:15;3.10;;;2.07;;
74904;SDS011;63465;50.862;6.220;2023-06-24T14:10:41;2.03;;;1.90;;
74904;SDS011;63465;50.862;6.220;2023-06-24T14:13:06;2.50;;;1.90;;
74904;SDS011;63465;50.862;6.220;2023-06-24T14:15:31;2.53;;;2.33;;
74904;SDS011;63465;50.862;6.220;2023-06-24T14:17:56;1.80;;;1.70;;
74904;SDS011;63465;50.862;6.220;2023-06-24T14:20:22;2.03;;;1.93;;
74904;SDS011;63465;50.862;6.220;2023-06-24T14:22:49;2.10;;;1.90;;
74904;SDS011;63465;50.862;6.220;2023-06-24T14:25:15;3.10;;;2.00;;
74904;SDS011;63465;50.862;6.220;2023-06-24T14:27:40;1.73;;;1.63;;
74904;SDS011;63465;50.862;6.220;2023-06-24T14:30:06;2.00;;;1.80;;
74904;SDS011;63465;50.862;6.220;2023-06-24T14:32:31;1.83;;;1.73;;
74904;SDS011;63465;50.862;6.220;2023-06-24T14:34:57;1.73;;;1.63;;
74904;SDS011;63465;50.862;6.220;2023-06-24T14:37:22;2.00;;;1.90;;
74904;SDS011;63465;50.862;6.220;2023-06-24T14:39:47;2.57;;;1.77;;
74904;SDS011;63465;50.862;6.220;2023-06-24T14:42:13;1.70;;;1.60;;
74904;SDS011;63465;50.862;6.220;2023-06-24T14:44:38;2.20;;;1.90;;
74904;SDS011;63465;50.862;6.220;2023-06-24T14:47:03;1.50;;;1.40;;
74904;SDS011;63465;50.862;6.220;2023-06-24T14:49:29;1.77;;;1.67;;
74904;SDS011;63465;50.862;6.220;2023-06-24T14:51:55;2.97;;;1.80;;
74904;SDS011;63465;50.862;6.220;2023-06-24T14:54:20;1.80;;;1.70;;